createdAt,value
2023-08-01T00:00:59.755Z,5.82
2023-08-01T00:03:26.888Z,7.22
2023-08-01T00:05:53.291Z,7.63
2023-08-01T00:08:19.676Z,8.65
2023-08-01T00:10:46.383Z,5.97
2023-08-01T00:13:12.870Z,7.38
2023-08-01T00:15:41.691Z,8.98
2023-08-01T00:18:08.967Z,11.02
2023-08-01T00:20:35.384Z,5.72
2023-08-01T00:23:01.826Z,7.82
2023-08-01T00:25:28.867Z,9.82
2023-08-01T00:27:55.238Z,7.93
2023-08-01T00:30:21.667Z,8.82
2023-08-01T00:32:48.461Z,8.25
2023-08-01T00:35:14.943Z,7.10
2023-08-01T00:37:41.318Z,6.38
2023-08-01T00:40:09.396Z,8.38
2023-08-01T00:42:39.402Z,7.28
2023-08-01T00:45:06.856Z,9.43
2023-08-01T00:47:34.404Z,12.23
2023-08-01T00:50:02.347Z,6.82
2023-08-01T00:52:28.852Z,5.03
2023-08-01T00:54:56.159Z,6.13
2023-08-01T00:57:22.620Z,5.90
2023-08-01T00:59:49.075Z,7.13
2023-08-01T01:02:15.948Z,7.93
2023-08-01T01:04:42.379Z,7.45
2023-08-01T01:07:09.790Z,6.07
2023-08-01T01:09:36.496Z,6.05
2023-08-01T01:12:03.190Z,7.97
2023-08-01T01:14:30.175Z,9.25
2023-08-01T01:16:57.259Z,7.13
2023-08-01T01:19:23.754Z,9.07
2023-08-01T01:22:18.408Z,8.05
2023-08-01T01:24:46.347Z,6.28
2023-08-01T01:27:13.676Z,7.18
2023-08-01T01:29:41.899Z,13.52
2023-08-01T01:32:08.859Z,8.02
2023-08-01T01:34:35.253Z,9.02
2023-08-01T01:37:02.026Z,6.55
2023-08-01T01:39:28.398Z,7.80
2023-08-01T01:41:54.844Z,7.65
2023-08-01T01:44:21.668Z,7.95
2023-08-01T01:46:50.467Z,9.60
2023-08-01T01:49:17.092Z,6.20
2023-08-01T01:51:44.158Z,8.32
2023-08-01T01:54:10.547Z,7.57
2023-08-01T01:56:37.178Z,8.32
2023-08-01T01:59:04.190Z,6.72
2023-08-01T02:01:30.584Z,7.20
2023-08-01T02:03:56.937Z,6.32
2023-08-01T02:06:23.714Z,7.60
2023-08-01T02:08:50.589Z,6.57
2023-08-01T02:11:16.989Z,8.18
2023-08-01T02:13:43.454Z,7.45
2023-08-01T02:16:10.104Z,5.28
2023-08-01T02:18:36.559Z,6.75
2023-08-01T02:21:02.970Z,6.03
2023-08-01T02:23:30.422Z,6.63
2023-08-01T02:25:56.790Z,6.60
2023-08-01T02:28:23.209Z,4.40
2023-08-01T02:30:51.889Z,5.22
2023-08-01T02:33:18.388Z,7.32
2023-08-01T02:35:44.845Z,7.18
2023-08-01T02:38:11.969Z,7.32
2023-08-01T02:40:38.474Z,6.32
2023-08-01T02:43:04.896Z,6.25
2023-08-01T02:45:31.555Z,4.95
2023-08-01T02:47:58.615Z,6.20
2023-08-01T02:50:25.168Z,4.75
2023-08-01T02:52:51.986Z,5.72
2023-08-01T02:55:18.367Z,5.85
2023-08-01T02:57:45.079Z,4.13
2023-08-01T03:00:13.067Z,6.47
2023-08-01T03:02:40.503Z,5.90
2023-08-01T03:05:08.950Z,6.57
2023-08-01T03:07:36.014Z,4.03
2023-08-01T03:10:03.265Z,5.95
2023-08-01T03:12:29.704Z,7.25
2023-08-01T03:14:56.725Z,4.03
2023-08-01T03:17:23.107Z,7.00
2023-08-01T03:19:50.133Z,6.72
2023-08-01T03:22:18.057Z,6.47
2023-08-01T03:24:44.527Z,6.78
2023-08-01T03:27:11.076Z,6.43
2023-08-01T03:29:37.993Z,4.45
2023-08-01T03:32:05.069Z,5.63
2023-08-01T03:34:31.565Z,4.57
2023-08-01T03:36:59.014Z,4.30
2023-08-01T03:39:25.460Z,6.15
2023-08-01T03:41:52.002Z,7.20
2023-08-01T03:44:18.958Z,4.45
2023-08-01T03:46:45.357Z,4.45
2023-08-01T03:49:11.768Z,4.60
2023-08-01T03:51:38.766Z,5.25
2023-08-01T03:54:13.390Z,6.35
2023-08-01T03:56:44.985Z,5.47
2023-08-01T03:59:16.717Z,4.68
2023-08-01T04:01:44.222Z,2.75
2023-08-01T04:04:11.330Z,6.18
2023-08-01T04:06:38.646Z,8.00
2023-08-01T04:09:05.846Z,4.75
2023-08-01T04:11:32.225Z,10.20
2023-08-01T04:13:58.688Z,4.22
2023-08-01T04:16:25.902Z,3.55
2023-08-01T04:18:52.323Z,4.70
2023-08-01T04:21:19.306Z,4.47
2023-08-01T04:23:46.111Z,7.30
2023-08-01T04:26:13.204Z,3.35
2023-08-01T04:28:39.623Z,4.75
2023-08-01T04:31:06.124Z,5.85
2023-08-01T04:33:32.891Z,6.68
2023-08-01T04:35:59.373Z,6.85
2023-08-01T04:38:26.196Z,6.22
2023-08-01T04:40:52.578Z,5.70
2023-08-01T04:43:18.952Z,5.90
2023-08-01T04:45:46.786Z,5.15
2023-08-01T04:48:13.159Z,6.32
2023-08-01T04:50:39.517Z,5.40
2023-08-01T04:53:08.113Z,5.75
2023-08-01T04:55:34.598Z,6.65
2023-08-01T04:58:01.006Z,6.00
2023-08-01T05:00:27.708Z,6.13
2023-08-01T05:02:54.156Z,5.40
2023-08-01T05:05:20.979Z,5.38
2023-08-01T05:10:17.692Z,5.72
2023-08-01T05:12:44.682Z,7.32
2023-08-01T05:15:11.531Z,5.85
2023-08-01T05:17:38.017Z,5.90
2023-08-01T05:20:05.835Z,4.50
2023-08-01T05:22:32.638Z,6.20
2023-08-01T05:24:59.384Z,6.32
2023-08-01T05:27:26.074Z,4.05
2023-08-01T05:29:52.442Z,4.97
2023-08-01T05:32:18.919Z,2.95
2023-08-01T05:34:45.867Z,4.85
2023-08-01T05:37:12.792Z,7.30
2023-08-01T05:39:39.877Z,5.43
2023-08-01T05:42:09.505Z,6.10
2023-08-01T05:44:36.421Z,5.82
2023-08-01T05:47:02.966Z,4.93
2023-08-01T05:49:30.872Z,4.22
2023-08-01T05:51:58.376Z,7.00
2023-08-01T05:54:24.837Z,4.20
2023-08-01T05:56:51.407Z,7.45
2023-08-01T05:59:18.677Z,5.57
2023-08-01T06:01:45.209Z,4.32
2023-08-01T06:04:11.712Z,7.80
2023-08-01T06:06:39.005Z,5.53
2023-08-01T06:09:05.998Z,6.20
2023-08-01T06:11:34.373Z,6.53
2023-08-01T06:14:00.784Z,5.38
2023-08-01T06:16:28.240Z,8.93
2023-08-01T06:18:54.936Z,6.05
2023-08-01T06:21:21.362Z,7.07
2023-08-01T06:23:48.375Z,5.82
2023-08-01T06:26:16.392Z,6.10
2023-08-01T06:28:43.244Z,6.25
2023-08-01T06:31:10.585Z,4.43
2023-08-01T06:33:37.019Z,5.40
2023-08-01T06:36:03.655Z,10.05
2023-08-01T06:38:30.402Z,5.85
2023-08-01T06:40:57.238Z,5.05
2023-08-01T06:43:25.619Z,4.38
2023-08-01T06:45:52.147Z,4.93
2023-08-01T06:48:19.160Z,6.03
2023-08-01T06:50:45.530Z,4.78
2023-08-01T06:53:12.057Z,6.30
2023-08-01T06:55:39.022Z,5.10
2023-08-01T06:58:06.734Z,4.65
2023-08-01T07:00:33.104Z,4.18
2023-08-01T07:03:00.156Z,9.35
2023-08-01T07:05:26.632Z,3.88
2023-08-01T07:07:53.030Z,7.18
2023-08-01T07:10:19.490Z,5.20
2023-08-01T07:12:45.905Z,5.18
2023-08-01T07:15:12.267Z,4.50
2023-08-01T07:17:38.853Z,6.90
2023-08-01T07:20:05.678Z,4.80
2023-08-01T07:22:32.045Z,5.85
2023-08-01T07:24:59.042Z,6.13
2023-08-01T07:27:25.442Z,3.33
2023-08-01T07:29:51.818Z,9.07
2023-08-01T07:32:18.832Z,5.15
2023-08-01T07:34:45.802Z,7.40
2023-08-01T07:37:12.245Z,6.15
2023-08-01T07:39:39.242Z,4.72
2023-08-01T07:42:05.758Z,3.65
2023-08-01T07:44:32.282Z,5.13
2023-08-01T07:46:59.418Z,7.32
2023-08-01T07:49:25.808Z,5.25
2023-08-01T07:51:52.304Z,5.82
2023-08-01T07:54:18.731Z,5.38
2023-08-01T07:56:45.253Z,5.15
2023-08-01T07:59:11.802Z,5.18
2023-08-01T08:01:38.555Z,4.53
2023-08-01T08:04:05.149Z,5.18
2023-08-01T08:06:32.145Z,4.65
2023-08-01T08:08:59.024Z,6.57
2023-08-01T08:11:25.515Z,10.30
2023-08-01T08:13:51.897Z,7.32
2023-08-01T08:16:18.825Z,5.35
2023-08-01T08:18:45.417Z,7.53
2023-08-01T08:21:11.797Z,5.95
2023-08-01T08:23:39.610Z,5.75
2023-08-01T08:26:06.677Z,6.13
2023-08-01T08:28:34.725Z,5.80
2023-08-01T08:31:05.916Z,5.78
2023-08-01T08:33:32.676Z,4.75
2023-08-01T08:35:59.108Z,4.57
2023-08-01T08:38:26.060Z,4.07
2023-08-01T08:41:11.328Z,8.80
2023-08-01T08:43:38.716Z,6.78
2023-08-01T08:46:06.265Z,5.95
2023-08-01T08:48:33.720Z,8.55
2023-08-01T08:51:02.778Z,6.88
2023-08-01T08:53:31.218Z,6.90
2023-08-01T08:55:58.362Z,8.52
2023-08-01T08:58:25.508Z,6.25
2023-08-01T09:00:52.539Z,6.20
2023-08-01T09:03:20.301Z,4.65
2023-08-01T09:05:51.498Z,5.00
2023-08-01T09:08:22.720Z,14.20
2023-08-01T09:10:49.197Z,6.00
2023-08-01T09:13:16.391Z,5.45
2023-08-01T09:15:46.108Z,5.90
2023-08-01T09:18:12.548Z,6.05
2023-08-01T09:20:48.125Z,5.47
2023-08-01T09:23:15.375Z,5.65
2023-08-01T09:25:42.383Z,9.18
2023-08-01T09:28:24.854Z,6.97
2023-08-01T09:30:56.533Z,5.07
2023-08-01T09:33:23.407Z,6.82
2023-08-01T09:35:53.808Z,4.95
2023-08-01T09:38:22.644Z,7.15
2023-08-01T09:40:51.152Z,5.10
2023-08-01T09:43:19.005Z,5.75
2023-08-01T09:45:55.680Z,4.97
2023-08-01T09:48:27.338Z,5.55
2023-08-01T09:51:08.052Z,5.97
2023-08-01T09:53:35.422Z,5.18
2023-08-01T09:56:05.543Z,5.18
2023-08-01T09:58:36.101Z,5.32
2023-08-01T10:01:03.136Z,7.35
2023-08-01T10:03:30.407Z,3.45
2023-08-01T10:05:58.304Z,4.13
2023-08-01T10:08:26.099Z,4.60
2023-08-01T10:10:53.876Z,4.80
2023-08-01T10:13:22.082Z,3.38
2023-08-01T10:15:48.944Z,6.00
2023-08-01T10:18:16.502Z,4.30
2023-08-01T10:20:44.742Z,2.80
2023-08-01T10:23:12.894Z,4.63
2023-08-01T10:25:40.688Z,4.57
2023-08-01T10:28:08.449Z,5.75
2023-08-01T10:30:34.885Z,6.10
2023-08-01T10:33:01.518Z,5.40
2023-08-01T10:35:34.491Z,7.25
2023-08-01T10:38:11.877Z,6.10
2023-08-01T10:40:44.141Z,5.22
2023-08-01T10:43:24.244Z,4.55
2023-08-01T10:46:03.640Z,5.78
2023-08-01T10:48:30.672Z,4.40
2023-08-01T10:50:58.106Z,4.18
2023-08-01T10:53:25.225Z,5.22
2023-08-01T10:55:51.596Z,4.28
2023-08-01T10:58:18.063Z,3.45
2023-08-01T11:00:45.091Z,2.60
2023-08-01T11:03:11.654Z,1.55
2023-08-01T11:05:38.274Z,2.63
2023-08-01T11:08:05.166Z,2.55
2023-08-01T11:10:33.169Z,1.38
2023-08-01T11:13:00.679Z,1.25
2023-08-01T11:15:27.423Z,3.28
2023-08-01T11:17:55.668Z,5.07
2023-08-01T11:20:24.950Z,4.22
2023-08-01T11:22:55.955Z,4.75
2023-08-01T11:25:35.282Z,3.40
2023-08-01T11:28:09.413Z,5.40
2023-08-01T11:30:36.621Z,3.00
2023-08-01T11:33:13.964Z,3.65
2023-08-01T11:35:41.388Z,3.08
2023-08-01T11:38:08.174Z,2.65
2023-08-01T11:40:35.670Z,3.03
2023-08-01T11:43:02.120Z,2.20
2023-08-01T11:45:28.719Z,4.45
2023-08-01T11:47:56.085Z,2.65
2023-08-01T11:50:24.338Z,2.10
2023-08-01T11:52:50.969Z,1.40
2023-08-01T11:55:26.787Z,1.25
2023-08-01T11:57:57.590Z,0.77
2023-08-01T12:00:29.381Z,1.73
2023-08-01T12:03:06.977Z,2.63
2023-08-01T12:05:35.077Z,1.65
2023-08-01T12:08:15.304Z,2.63
2023-08-01T12:10:44.628Z,2.35
2023-08-01T12:13:24.442Z,2.53
2023-08-01T12:15:53.144Z,3.53
2023-08-01T12:20:57.951Z,1.70
2023-08-01T12:23:24.365Z,2.92
2023-08-01T12:25:50.819Z,2.55
2023-08-01T12:28:18.291Z,1.98
2023-08-01T12:30:45.434Z,3.17
2023-08-01T12:33:11.926Z,2.25
2023-08-01T12:35:43.447Z,2.33
2023-08-01T12:38:10.490Z,2.50
2023-08-01T12:40:37.227Z,1.92
2023-08-01T12:43:04.088Z,2.25
2023-08-01T12:45:30.548Z,1.77
2023-08-01T12:47:57.021Z,2.60
2023-08-01T12:50:23.853Z,2.05
2023-08-01T12:52:50.246Z,1.90
2023-08-01T12:55:16.924Z,3.47
2023-08-01T12:57:44.910Z,2.22
2023-08-01T13:00:11.730Z,2.63
2023-08-01T13:02:38.751Z,2.10
2023-08-01T13:05:06.560Z,2.53
2023-08-01T13:07:33.600Z,2.35
2023-08-01T13:10:00.446Z,1.75
2023-08-01T13:12:27.254Z,0.82
2023-08-01T13:14:58.104Z,2.25
2023-08-01T13:17:30.838Z,1.05
2023-08-01T13:19:57.214Z,1.65
2023-08-01T13:22:23.752Z,3.35
2023-08-01T13:24:50.621Z,5.43
2023-08-01T13:27:17.017Z,2.67
2023-08-01T13:29:43.377Z,0.80
2023-08-01T13:32:10.224Z,1.48
2023-08-01T13:34:36.627Z,3.13
2023-08-01T13:37:03.215Z,1.00
2023-08-01T13:39:30.191Z,1.27
2023-08-01T13:41:56.584Z,1.45
2023-08-01T13:44:22.938Z,1.00
2023-08-01T13:46:50.406Z,0.82
2023-08-01T13:49:17.134Z,0.95
2023-08-01T13:51:43.582Z,1.10
2023-08-01T13:54:10.822Z,1.35
2023-08-01T13:56:39.266Z,1.63
2023-08-01T13:59:06.128Z,1.38
2023-08-01T14:01:33.446Z,1.08
2023-08-01T14:03:59.941Z,1.35
2023-08-01T14:06:26.592Z,2.20
2023-08-01T14:08:53.213Z,1.05
2023-08-01T14:11:19.582Z,1.48
2023-08-01T14:13:45.929Z,1.92
2023-08-01T14:16:12.708Z,0.82
2023-08-01T14:18:39.760Z,1.10
2023-08-01T14:21:06.637Z,3.42
2023-08-01T14:23:33.381Z,1.65
2023-08-01T14:25:59.846Z,1.30
2023-08-01T14:28:26.241Z,1.65
2023-08-01T14:30:53.193Z,1.48
2023-08-01T14:33:21.996Z,1.42
2023-08-01T14:35:48.389Z,3.25
2023-08-01T14:38:15.255Z,1.52
2023-08-01T14:40:45.298Z,1.75
2023-08-01T14:43:14.078Z,1.60
2023-08-01T14:45:41.992Z,2.85
2023-08-01T14:48:09.114Z,1.55
2023-08-01T14:50:35.828Z,1.33
2023-08-01T14:53:05.436Z,0.98
2023-08-01T14:55:31.806Z,2.75
2023-08-01T14:57:58.174Z,1.85
2023-08-01T15:00:25.153Z,1.48
2023-08-01T15:02:52.758Z,3.33
2023-08-01T15:05:19.200Z,1.35
2023-08-01T15:07:45.736Z,1.27
2023-08-01T15:10:12.418Z,1.60
2023-08-01T15:12:39.253Z,1.52
2023-08-01T15:15:06.870Z,2.08
2023-08-01T15:17:33.323Z,1.45
2023-08-01T15:20:00.232Z,4.38
2023-08-01T15:22:26.608Z,2.05
2023-08-01T15:24:52.994Z,1.95
2023-08-01T15:27:19.800Z,1.42
2023-08-01T15:29:48.171Z,1.70
2023-08-01T15:32:14.573Z,3.35
2023-08-01T15:34:41.861Z,1.60
2023-08-01T15:37:11.086Z,2.13
2023-08-01T15:39:37.547Z,1.63
2023-08-01T15:42:04.649Z,1.88
2023-08-01T15:44:32.792Z,1.50
2023-08-01T15:46:59.538Z,6.90
2023-08-01T15:49:26.377Z,2.47
2023-08-01T15:51:53.262Z,1.27
2023-08-01T15:54:19.698Z,3.05
2023-08-01T15:56:46.103Z,4.38
2023-08-01T15:59:12.815Z,4.07
2023-08-01T16:01:39.390Z,1.73
2023-08-01T16:04:06.439Z,2.47
2023-08-01T16:06:32.880Z,3.40
2023-08-01T16:08:59.286Z,1.67
2023-08-01T16:11:26.013Z,1.85
2023-08-01T16:13:52.582Z,2.75
2023-08-01T16:16:19.466Z,2.00
2023-08-01T16:18:46.039Z,3.78
2023-08-01T16:21:12.450Z,1.20
2023-08-01T16:23:39.537Z,3.78
2023-08-01T16:26:06.269Z,2.90
2023-08-01T16:28:32.806Z,3.65
2023-08-01T16:30:59.588Z,4.13
2023-08-01T16:33:26.041Z,1.45
2023-08-01T16:35:52.407Z,1.55
2023-08-01T16:38:19.175Z,1.80
2023-08-01T16:40:45.700Z,1.85
2023-08-01T16:43:13.622Z,2.50
2023-08-01T16:45:40.393Z,1.70
2023-08-01T16:48:06.772Z,2.55
2023-08-01T16:50:33.471Z,3.25
2023-08-01T16:52:59.846Z,2.97
2023-08-01T16:55:26.259Z,1.38
2023-08-01T16:57:53.087Z,1.90
2023-08-01T17:00:19.819Z,2.50
2023-08-01T17:02:46.348Z,1.55
2023-08-01T17:05:14.554Z,2.15
2023-08-01T17:07:40.967Z,4.20
2023-08-01T17:10:08.181Z,1.83
2023-08-01T17:12:34.974Z,2.83
2023-08-01T17:15:01.576Z,1.75
2023-08-01T17:17:28.361Z,1.20
2023-08-01T17:19:56.897Z,6.72
2023-08-01T17:22:27.720Z,6.68
2023-08-01T17:24:54.138Z,2.20
2023-08-01T17:27:20.611Z,2.38
2023-08-01T17:29:47.902Z,1.10
2023-08-01T17:32:14.358Z,1.90
2023-08-01T17:34:41.389Z,1.40
2023-08-01T17:37:07.825Z,1.27
2023-08-01T17:39:34.806Z,1.67
2023-08-01T17:42:01.958Z,1.75
2023-08-01T17:44:29.986Z,1.70
2023-08-01T17:47:00.909Z,1.65
2023-08-01T17:49:28.034Z,1.05
2023-08-01T17:51:54.524Z,2.67
2023-08-01T17:54:20.904Z,1.70
2023-08-01T17:56:47.639Z,2.45
2023-08-01T17:59:16.167Z,1.58
2023-08-01T18:01:42.953Z,1.23
2023-08-01T18:04:10.326Z,1.83
2023-08-01T18:06:36.807Z,0.80
2023-08-01T18:09:03.365Z,2.25
2023-08-01T18:11:31.069Z,2.47
2023-08-01T18:14:01.345Z,2.78
2023-08-01T18:16:28.355Z,4.07
2023-08-01T18:18:56.095Z,1.15
2023-08-01T18:21:22.544Z,1.38
2023-08-01T18:23:49.643Z,1.80
2023-08-01T18:26:24.078Z,1.40
2023-08-01T18:28:54.590Z,2.25
2023-08-01T18:31:25.340Z,2.17
2023-08-01T18:33:51.812Z,2.03
2023-08-01T18:36:21.023Z,1.42
2023-08-01T18:38:49.526Z,1.98
2023-08-01T18:41:16.284Z,1.52
2023-08-01T18:43:42.792Z,1.98
2023-08-01T18:46:09.899Z,1.30
2023-08-01T18:48:36.394Z,1.83
2023-08-01T18:51:13.784Z,1.52
2023-08-01T18:53:40.582Z,2.05
2023-08-01T18:56:13.358Z,2.58
2023-08-01T18:58:42.463Z,1.17
2023-08-01T19:01:19.365Z,2.33
2023-08-01T19:03:47.066Z,1.48
2023-08-01T19:06:17.394Z,1.33
2023-08-01T19:08:48.191Z,1.98
2023-08-01T19:11:15.052Z,2.15
2023-08-01T19:13:42.629Z,1.75
2023-08-01T19:16:09.455Z,2.13
2023-08-01T19:18:35.867Z,2.88
2023-08-01T19:21:03.154Z,1.70
2023-08-01T19:23:30.321Z,3.20
2023-08-01T19:25:57.054Z,4.68
2023-08-01T19:28:24.336Z,1.70
2023-08-01T19:30:50.780Z,2.45
2023-08-01T19:33:17.214Z,4.88
2023-08-01T19:35:45.790Z,1.98
2023-08-01T19:38:12.477Z,3.53
2023-08-01T19:40:43.246Z,2.00
2023-08-01T19:43:11.267Z,3.65
2023-08-01T19:45:39.089Z,1.65
2023-08-01T19:48:07.065Z,1.27
2023-08-01T19:50:34.268Z,1.50
2023-08-01T19:53:00.729Z,2.05
2023-08-01T19:55:28.857Z,1.67
2023-08-01T19:57:58.275Z,1.35
2023-08-01T20:00:25.000Z,3.70
2023-08-01T20:02:51.557Z,1.95
2023-08-01T20:05:18.645Z,1.73
2023-08-01T20:07:45.105Z,2.42
2023-08-01T20:10:11.598Z,2.97
2023-08-01T20:12:38.066Z,1.17
2023-08-01T20:15:07.185Z,1.58
2023-08-01T20:17:33.647Z,3.85
2023-08-01T20:20:00.447Z,1.70
2023-08-01T20:22:26.879Z,1.30
2023-08-01T20:24:53.238Z,1.38
2023-08-01T20:27:21.116Z,3.35
2023-08-01T20:29:47.542Z,1.75
2023-08-01T20:32:14.222Z,3.00
2023-08-01T20:34:41.123Z,3.28
2023-08-01T20:37:07.553Z,2.35
2023-08-01T20:39:34.056Z,3.00
2023-08-01T20:42:01.170Z,2.28
2023-08-01T20:44:27.609Z,1.70
2023-08-01T20:46:54.037Z,2.75
2023-08-01T20:49:21.239Z,2.22
2023-08-01T20:51:47.642Z,2.28
2023-08-01T20:54:14.466Z,2.05
2023-08-01T20:56:41.494Z,4.28
2023-08-01T20:59:07.998Z,2.25
2023-08-01T21:01:34.539Z,3.00
2023-08-01T21:04:01.522Z,2.25
2023-08-01T21:06:27.988Z,2.70
2023-08-01T21:09:04.847Z,4.43
2023-08-01T21:11:31.913Z,1.42
2023-08-01T21:13:58.284Z,4.15
2023-08-01T21:16:24.681Z,1.77
2023-08-01T21:18:51.395Z,4.57
2023-08-01T21:21:17.961Z,3.92
2023-08-01T21:23:44.592Z,1.90
2023-08-01T21:26:11.629Z,1.58
2023-08-01T21:28:38.347Z,3.42
2023-08-01T21:31:04.876Z,2.60
2023-08-01T21:33:31.702Z,2.00
2023-08-01T21:35:58.449Z,2.30
2023-08-01T21:38:24.874Z,4.18
2023-08-01T21:40:51.274Z,4.65
2023-08-01T21:43:19.376Z,1.83
2023-08-01T21:45:53.602Z,2.42
2023-08-01T21:48:20.464Z,2.30
2023-08-01T21:50:46.888Z,2.08
2023-08-01T21:53:13.259Z,1.83
2023-08-01T21:55:39.666Z,2.00
2023-08-01T21:58:06.403Z,3.63
2023-08-01T22:00:32.766Z,3.28
2023-08-01T22:02:59.697Z,1.80
2023-08-01T22:05:26.133Z,2.58
2023-08-01T22:07:52.511Z,3.05
2023-08-01T22:10:19.216Z,2.13
2023-08-01T22:12:45.802Z,2.28
2023-08-01T22:15:12.349Z,2.03
2023-08-01T22:17:41.063Z,2.17
2023-08-01T22:20:10.232Z,2.55
2023-08-01T22:22:36.752Z,2.80
2023-08-01T22:25:06.252Z,2.72
2023-08-01T22:27:34.348Z,3.17
2023-08-01T22:30:00.923Z,2.35
2023-08-01T22:32:29.612Z,2.53
2023-08-01T22:34:57.056Z,3.42
2023-08-01T22:37:23.452Z,5.20
2023-08-01T22:39:50.469Z,1.58
2023-08-01T22:42:16.854Z,5.05
2023-08-01T22:44:43.238Z,2.15
2023-08-01T22:47:10.282Z,3.88
2023-08-01T22:49:38.213Z,1.38
2023-08-01T22:52:06.195Z,2.10
2023-08-01T22:54:33.233Z,2.53
2023-08-01T22:56:59.621Z,2.15
2023-08-01T22:59:25.977Z,2.80
2023-08-01T23:01:53.021Z,2.50
2023-08-01T23:04:19.392Z,2.42
2023-08-01T23:06:45.955Z,3.25
2023-08-01T23:09:19.030Z,3.17
2023-08-01T23:11:45.456Z,2.80
2023-08-01T23:14:11.923Z,4.53
2023-08-01T23:16:38.624Z,3.20
2023-08-01T23:19:05.013Z,3.15
2023-08-01T23:21:32.449Z,4.15
2023-08-01T23:24:00.610Z,4.82
2023-08-01T23:26:28.778Z,4.20
2023-08-01T23:28:55.236Z,3.35
2023-08-01T23:31:22.398Z,3.83
2023-08-01T23:33:48.860Z,2.63
2023-08-01T23:36:15.209Z,3.05
2023-08-01T23:38:41.938Z,4.00
2023-08-01T23:41:12.677Z,2.90
2023-08-01T23:43:39.864Z,2.95
2023-08-01T23:46:07.191Z,3.75
2023-08-01T23:48:34.137Z,2.53
2023-08-01T23:51:00.701Z,4.65
2023-08-01T23:53:27.916Z,2.78
2023-08-01T23:55:59.295Z,4.28
2023-08-01T23:58:29.072Z,5.10
